createdAt,value
2018-11-01T00:01:32.982Z,100215.91
2018-11-01T00:04:04.650Z,100211.32
2018-11-01T00:06:34.650Z,100221.92
2018-11-01T00:09:06.042Z,100214.80
2018-11-01T00:11:36.033Z,100205.61
2018-11-01T00:14:09.016Z,100207.45
2018-11-01T00:16:39.045Z,100150.73
2018-11-01T00:19:09.091Z,100193.10
2018-11-01T00:21:39.126Z,100204.05
2018-11-01T00:24:09.126Z,100209.80
2018-11-01T00:26:39.133Z,100212.25
2018-11-01T00:29:09.612Z,100216.87
2018-11-01T00:31:39.626Z,100223.44
2018-11-01T00:34:09.635Z,100229.44
2018-11-01T00:36:39.656Z,100236.37
2018-11-01T00:39:12.109Z,100238.22
2018-11-01T00:41:42.128Z,100244.22
2018-11-01T00:44:12.227Z,100193.70
2018-11-01T00:46:42.210Z,100245.39
2018-11-01T00:49:12.263Z,100248.83
2018-11-01T00:51:42.208Z,100241.47
2018-11-01T00:54:12.211Z,100222.84
2018-11-01T00:56:42.287Z,100191.06
2018-11-01T00:59:12.350Z,100240.56
2018-11-01T01:01:42.355Z,100236.56
2018-11-01T01:04:12.338Z,100232.75
2018-11-01T01:06:43.302Z,100227.59
2018-11-01T01:09:15.078Z,100234.60
2018-11-01T01:11:45.095Z,100244.73
2018-11-01T01:14:15.113Z,100242.90
2018-11-01T01:16:45.081Z,100250.95
2018-11-01T01:19:15.696Z,100252.33
2018-11-01T01:21:45.715Z,100243.83
2018-11-01T01:24:15.802Z,100243.83
2018-11-01T01:27:09.964Z,100235.91
2018-11-01T01:29:41.012Z,100239.23
2018-11-01T01:32:10.991Z,100248.66
2018-11-01T01:34:41.078Z,100256.48
2018-11-01T01:37:11.682Z,100247.29
2018-11-01T01:39:50.358Z,100232.81
2018-11-01T02:13:44.326Z,100227.54
2018-11-01T02:16:14.245Z,100214.45
2018-11-01T02:18:44.176Z,100209.16
2018-11-01T02:21:14.163Z,100217.90
2018-11-01T02:23:44.150Z,100210.88
2018-11-01T02:26:14.125Z,100207.98
2018-11-01T02:28:44.065Z,100200.64
2018-11-01T02:31:14.025Z,100204.08
2018-11-01T02:33:44.045Z,100204.08
2018-11-01T02:36:14.067Z,100197.75
2018-11-01T02:38:44.117Z,100192.83
2018-11-01T02:41:14.057Z,100200.50
2018-11-01T02:43:43.958Z,100194.77
2018-11-01T02:46:13.972Z,100188.47
2018-11-01T02:48:43.958Z,100190.77
2018-11-01T02:51:13.899Z,100199.95
2018-11-01T02:53:43.876Z,100203.16
2018-11-01T02:56:13.834Z,100213.72
2018-11-01T02:58:43.888Z,100214.05
2018-11-01T03:01:18.367Z,100230.13
2018-11-01T03:03:49.619Z,100227.23
2018-11-01T03:06:19.727Z,100233.66
2018-11-01T03:08:49.683Z,100230.56
2018-11-01T03:11:19.673Z,100224.13
2018-11-01T03:13:49.636Z,100226.28
2018-11-01T03:16:19.601Z,100234.30
2018-11-01T03:18:49.572Z,100228.32
2018-11-01T03:21:19.505Z,100227.25
2018-11-01T03:23:49.489Z,100219.66
2018-11-01T03:26:19.512Z,100214.22
2018-11-01T03:28:49.442Z,100215.11
2018-11-01T03:31:19.445Z,100210.25
2018-11-01T03:33:49.441Z,100202.88
2018-11-01T03:36:19.479Z,100197.13
2018-11-01T03:38:49.496Z,100193.29
2018-11-01T03:41:19.540Z,100193.37
2018-11-01T03:43:49.513Z,100190.34
2018-11-01T03:46:19.513Z,100180.13
2018-11-01T03:48:49.585Z,100179.97
2018-11-01T03:51:19.553Z,100173.53
2018-11-01T03:53:49.585Z,100165.16
2018-11-01T03:56:19.555Z,100153.75
2018-11-01T03:58:49.580Z,100146.17
2018-11-01T04:01:19.542Z,100142.48
2018-11-01T04:03:49.534Z,100137.43
2018-11-01T04:06:19.445Z,100139.23
2018-11-01T04:08:49.407Z,100146.55
2018-11-01T04:11:19.365Z,100151.57
2018-11-01T04:13:49.396Z,100159.23
2018-11-01T04:16:19.281Z,100157.30
2018-11-01T04:18:49.210Z,100169.67
2018-11-01T04:21:19.210Z,100173.20
2018-11-01T04:23:49.031Z,100175.95
2018-11-01T04:26:19.178Z,100160.95
2018-11-01T04:28:49.146Z,100164.13
2018-11-01T04:31:19.095Z,100172.23
2018-11-01T04:33:49.155Z,100167.95
2018-11-01T04:36:19.136Z,100178.58
2018-11-01T04:38:49.059Z,100184.03
2018-11-01T04:41:18.990Z,100178.73
2018-11-01T04:43:48.968Z,100170.44
2018-11-01T04:46:18.939Z,100168.43
2018-11-01T04:48:48.943Z,100172.81
2018-11-01T04:51:18.859Z,100168.65
2018-11-01T04:53:48.788Z,100157.30
2018-11-01T04:56:18.731Z,100154.97
2018-11-01T04:58:48.673Z,100153.31
2018-11-01T05:01:21.402Z,100149.92
2018-11-01T05:03:53.522Z,100158.58
2018-11-01T05:06:23.808Z,100155.91
2018-11-01T05:08:53.771Z,100158.90
2018-11-01T05:11:23.774Z,100160.03
2018-11-01T05:13:53.758Z,100155.91
2018-11-01T05:16:23.726Z,100158.19
2018-11-01T05:18:53.673Z,100154.41
2018-11-01T05:21:23.637Z,100144.33
2018-11-01T05:23:53.610Z,100142.31
2018-11-01T05:26:23.596Z,100139.75
2018-11-01T05:28:53.651Z,100148.40
2018-11-01T05:31:23.639Z,100151.80
2018-11-01T05:33:53.612Z,100142.61
2018-11-01T05:36:23.520Z,100143.50
2018-11-01T05:38:53.485Z,100144.16
2018-11-01T05:41:23.656Z,100147.80
2018-11-01T05:43:53.663Z,100142.37
2018-11-01T05:46:23.590Z,100142.72
2018-11-01T05:48:53.545Z,100144.41
2018-11-01T05:51:23.459Z,100139.73
2018-11-01T05:53:53.444Z,100147.39
2018-11-01T05:56:23.314Z,100139.16
2018-11-01T05:58:53.214Z,100135.77
2018-11-01T06:01:28.251Z,100131.58
2018-11-01T06:03:58.264Z,100129.78
2018-11-01T06:06:28.248Z,100126.94
2018-11-01T06:08:58.395Z,100130.09
2018-11-01T06:11:28.362Z,100124.49
2018-11-01T06:13:58.293Z,100122.49
2018-11-01T06:16:28.238Z,100118.75
2018-11-01T06:18:58.274Z,100121.66
2018-11-01T06:21:29.169Z,100126.14
2018-11-01T06:23:59.152Z,100140.50
2018-11-01T06:26:29.135Z,100158.72
2018-11-01T06:28:59.147Z,100154.41
2018-11-01T06:31:29.116Z,100172.90
2018-11-01T06:33:59.123Z,100168.36
2018-11-01T06:36:29.122Z,100163.73
2018-11-01T06:38:59.155Z,100173.41
2018-11-01T06:41:29.120Z,100178.36
2018-11-01T06:43:59.051Z,100185.08
2018-11-01T06:46:29.042Z,100188.19
2018-11-01T06:48:59.056Z,100192.12
2018-11-01T06:51:29.059Z,100185.30
2018-11-01T06:53:59.102Z,100189.46
2018-11-01T06:56:29.118Z,100184.59
2018-11-01T06:58:59.081Z,100177.77
2018-11-01T07:01:29.074Z,100187.42
2018-11-01T07:03:59.047Z,100190.80
2018-11-01T07:06:28.994Z,100197.47
2018-11-01T07:08:58.965Z,100193.16
2018-11-01T07:11:29.038Z,100197.66
2018-11-01T07:13:59.564Z,100189.01
2018-11-01T07:16:29.611Z,100179.50
2018-11-01T07:18:59.585Z,100181.81
2018-11-01T07:21:29.543Z,100175.64
2018-11-01T07:23:59.982Z,100165.34
2018-11-01T07:26:30.057Z,100168.80
2018-11-01T07:29:00.066Z,100164.82
2018-11-01T07:31:30.069Z,100166.34
2018-11-01T07:33:59.963Z,100160.16
2018-11-01T07:36:29.989Z,100156.16
2018-11-01T07:38:59.953Z,100156.30
2018-11-01T07:41:29.930Z,100148.51
2018-11-01T07:44:00.095Z,100156.08
2018-11-01T07:46:30.569Z,100161.47
2018-11-01T07:49:00.527Z,100160.70
2018-11-01T07:51:30.473Z,100158.20
2018-11-01T07:54:00.467Z,100161.79
2018-11-01T07:56:30.518Z,100154.80
2018-11-01T07:59:00.510Z,100148.42
2018-11-01T08:01:31.675Z,100143.16
2018-11-01T08:04:02.258Z,100154.88
2018-11-01T08:06:32.288Z,100144.79
2018-11-01T08:09:02.633Z,100145.48
2018-11-01T08:11:32.771Z,100142.05
2018-11-01T08:14:02.840Z,100131.25
2018-11-01T08:16:32.821Z,100130.36
2018-11-01T08:19:03.216Z,100120.35
2018-11-01T08:21:33.239Z,100115.42
2018-11-01T08:24:03.242Z,100102.45
2018-11-01T08:26:33.254Z,100111.19
2018-11-01T08:29:03.237Z,100112.89
2018-11-01T08:31:33.263Z,100111.73
2018-11-01T08:34:03.217Z,100111.94
2018-11-01T08:36:33.219Z,100106.89
2018-11-01T08:39:03.183Z,100106.50
2018-11-01T08:41:33.139Z,100100.86
2018-11-01T08:44:03.089Z,100103.45
2018-11-01T08:46:33.107Z,100099.40
2018-11-01T08:49:03.059Z,100094.30
2018-11-01T08:51:33.091Z,100094.72
2018-11-01T08:54:03.079Z,100097.92
2018-11-01T08:56:33.066Z,100103.86
2018-11-01T08:59:03.044Z,100102.45
2018-11-01T09:01:33.320Z,100093.08
2018-11-01T09:04:03.283Z,100090.65
2018-11-01T09:06:33.334Z,100070.61
2018-11-01T09:09:03.438Z,100074.27
2018-11-01T09:11:33.460Z,100081.49
2018-11-01T09:14:03.436Z,100098.52
2018-11-01T09:16:33.442Z,100102.51
2018-11-01T09:19:03.482Z,100108.25
2018-11-01T09:21:34.064Z,100099.29
2018-11-01T09:24:04.075Z,100102.16
2018-11-01T09:26:34.090Z,100106.15
2018-11-01T09:29:04.105Z,100097.73
2018-11-01T09:31:34.062Z,100097.84
2018-11-01T09:34:04.460Z,100106.58
2018-11-01T09:36:34.589Z,100106.65
2018-11-01T09:39:07.082Z,100109.30
2018-11-01T09:41:37.169Z,100109.96
2018-11-01T09:44:07.610Z,100116.59
2018-11-01T09:46:37.791Z,100121.63
2018-11-01T09:49:07.756Z,100111.47
2018-11-01T09:51:37.738Z,100108.55
2018-11-01T09:54:07.754Z,100112.57
2018-11-01T09:56:37.764Z,100115.78
2018-11-01T09:59:07.725Z,100116.82
2018-11-01T10:01:37.679Z,100111.14
2018-11-01T10:04:07.981Z,100107.66
2018-11-01T10:06:38.008Z,100109.48
2018-11-01T10:09:09.492Z,100107.59
2018-11-01T10:11:39.468Z,100101.72
2018-11-01T10:14:09.779Z,100105.94
2018-11-01T10:16:40.117Z,100112.13
2018-11-01T10:19:10.793Z,100116.94
2018-11-01T10:21:40.825Z,100124.55
2018-11-01T10:24:10.847Z,100121.41
2018-11-01T10:26:40.938Z,100121.06
2018-11-01T10:29:10.959Z,100124.27
2018-11-01T10:31:41.075Z,100134.61
2018-11-01T10:34:11.071Z,100130.30
2018-11-01T10:36:41.096Z,100127.85
2018-11-01T10:39:11.764Z,100120.66
2018-11-01T10:41:41.701Z,100119.77
2018-11-01T10:44:11.749Z,100113.98
2018-11-01T10:46:41.719Z,100113.09
2018-11-01T10:49:11.761Z,100110.04
2018-11-01T10:51:41.760Z,100098.24
2018-11-01T10:54:11.872Z,100095.19
2018-11-01T10:56:41.830Z,100091.69
2018-11-01T10:59:11.826Z,100085.70
2018-11-01T11:01:43.986Z,100078.05
2018-11-01T11:04:13.963Z,100066.25
2018-11-01T11:06:44.077Z,100061.36
2018-11-01T11:09:14.360Z,100051.72
2018-11-01T11:11:44.326Z,100044.45
2018-11-01T11:14:14.354Z,100039.56
2018-11-01T11:16:44.323Z,100037.58
2018-11-01T11:19:14.380Z,100034.89
2018-11-01T11:21:44.451Z,100036.28
2018-11-01T11:24:14.481Z,100030.14
2018-11-01T11:26:44.519Z,100032.69
2018-11-01T11:29:14.543Z,100043.98
2018-11-01T11:31:44.572Z,100045.02
2018-11-01T11:34:14.687Z,100050.98
2018-11-01T11:36:44.717Z,100064.91
2018-11-01T11:39:14.864Z,100060.03
2018-11-01T11:41:44.829Z,100065.39
2018-11-01T11:44:14.883Z,100064.23
2018-11-01T11:46:44.925Z,100062.49
2018-11-01T11:49:14.911Z,100068.81
2018-11-01T11:51:44.977Z,100072.02
2018-11-01T11:54:15.029Z,100079.16
2018-11-01T11:56:45.086Z,100090.02
2018-11-01T11:59:15.157Z,100088.20
2018-11-01T12:01:45.215Z,100091.58
2018-11-01T12:04:15.241Z,100083.78
2018-11-01T12:06:45.259Z,100089.89
2018-11-01T12:09:15.299Z,100088.08
2018-11-01T12:11:45.291Z,100083.48
2018-11-01T12:14:15.647Z,100080.06
2018-11-01T12:16:45.702Z,100076.70
2018-11-01T12:19:15.731Z,100073.92
2018-11-01T12:21:45.785Z,100071.16
2018-11-01T12:24:15.882Z,100071.16
2018-11-01T12:26:45.932Z,100064.83
2018-11-01T12:29:15.999Z,100061.25
2018-11-01T12:31:46.027Z,100060.81
2018-11-01T12:34:16.007Z,100060.98
2018-11-01T12:36:46.034Z,100054.58
2018-11-01T12:39:15.993Z,100052.54
2018-11-01T12:41:46.004Z,100048.91
2018-11-01T12:44:16.027Z,100038.56
2018-11-01T12:46:45.966Z,100037.70
2018-11-01T12:49:16.107Z,100035.62
2018-11-01T12:51:46.217Z,100033.51
2018-11-01T12:54:16.273Z,100041.29
2018-11-01T12:56:46.348Z,100039.03
2018-11-01T12:59:16.377Z,100037.22
2018-11-01T13:01:46.427Z,100042.31
2018-11-01T13:04:16.463Z,100038.16
2018-11-01T13:06:46.938Z,100042.31
2018-11-01T13:09:17.299Z,100045.30
2018-11-01T13:11:47.299Z,100041.36
2018-11-01T13:14:17.256Z,100044.95
2018-11-01T13:16:47.248Z,100038.59
2018-11-01T13:19:17.251Z,100047.50
2018-11-01T13:21:47.306Z,100047.50
2018-11-01T13:24:17.448Z,100047.06
2018-11-01T13:26:47.425Z,100055.71
2018-11-01T13:29:17.496Z,100062.41
2018-11-01T13:31:47.413Z,100066.56
2018-11-01T13:34:17.441Z,100069.77
2018-11-01T13:36:47.420Z,100069.55
2018-11-01T13:39:17.456Z,100082.59
2018-11-01T13:41:47.583Z,100092.50
2018-11-01T13:44:17.561Z,100080.62
2018-11-01T13:46:47.522Z,100091.34
2018-11-01T13:49:17.528Z,100093.89
2018-11-01T13:51:47.500Z,100087.53
2018-11-01T13:54:17.492Z,100080.62
2018-11-01T13:56:47.478Z,100086.88
2018-11-01T13:59:17.434Z,100091.88
2018-11-01T14:01:47.481Z,100100.69
2018-11-01T14:04:17.455Z,100107.55
2018-11-01T14:06:47.604Z,100108.05
2018-11-01T14:09:17.577Z,100119.02
2018-11-01T14:11:47.631Z,100112.27
2018-11-01T14:14:18.046Z,100109.84
2018-11-01T14:16:47.585Z,100106.19
2018-11-01T14:19:17.612Z,100113.02
2018-11-01T14:21:47.616Z,100120.20
2018-11-01T14:24:17.687Z,100112.91
2018-11-01T14:26:47.700Z,100107.66
2018-11-01T14:29:17.698Z,100116.82
2018-11-01T14:31:47.728Z,100114.08
2018-11-01T14:34:17.715Z,100116.55
2018-11-01T14:36:47.728Z,100118.20
2018-11-01T14:39:17.765Z,100113.39
2018-11-01T14:41:47.806Z,100116.98
2018-11-01T14:44:17.835Z,100114.27
2018-11-01T14:46:47.856Z,100125.94
2018-11-01T14:49:17.871Z,100124.82
2018-11-01T14:51:48.383Z,100120.69
2018-11-01T14:54:18.876Z,100119.80
2018-11-01T14:56:50.093Z,100120.06
2018-11-01T14:59:19.716Z,100117.78
2018-11-01T15:01:48.409Z,100118.27
2018-11-01T15:04:18.443Z,100125.44
2018-11-01T15:06:49.280Z,100120.62
2018-11-01T15:09:19.101Z,100118.91
2018-11-01T15:11:49.141Z,100120.20
2018-11-01T15:14:19.132Z,100119.08
2018-11-01T15:16:49.189Z,100121.17
2018-11-01T15:19:19.314Z,100111.95
2018-11-01T15:21:49.268Z,100116.80
2018-11-01T15:24:19.250Z,100110.83
2018-11-01T15:26:49.265Z,100109.93
2018-11-01T15:29:19.288Z,100106.50
2018-11-01T15:31:49.336Z,100105.59
2018-11-01T15:34:19.363Z,100092.73
2018-11-01T15:36:49.399Z,100093.66
2018-11-01T15:39:19.403Z,100094.81
2018-11-01T15:41:49.392Z,100094.36
2018-11-01T15:44:19.364Z,100087.23
2018-11-01T15:46:49.938Z,100085.41
2018-11-01T15:49:19.894Z,100083.58
2018-11-01T15:51:49.935Z,100072.09
2018-11-01T15:54:19.948Z,100068.88
2018-11-01T15:56:49.952Z,100068.42
2018-11-01T15:59:20.104Z,100071.52
2018-11-01T16:01:50.078Z,100069.69
2018-11-01T16:04:20.131Z,100070.28
2018-11-01T16:06:50.218Z,100066.70
2018-11-01T16:09:20.210Z,100067.08
2018-11-01T16:11:50.186Z,100055.81
2018-11-01T16:14:20.200Z,100061.33
2018-11-01T16:16:50.233Z,100055.59
2018-11-01T16:19:20.236Z,100049.84
2018-11-01T16:21:50.173Z,100045.71
2018-11-01T16:24:20.189Z,100041.34
2018-11-01T16:26:50.242Z,100041.69
2018-11-01T16:29:20.277Z,100044.81
2018-11-01T16:31:50.352Z,100044.81
2018-11-01T16:34:20.396Z,100042.16
2018-11-01T16:36:50.415Z,100036.42
2018-11-01T16:39:20.403Z,100035.63
2018-11-01T16:41:50.425Z,100042.64
2018-11-01T16:44:20.471Z,100048.16
2018-11-01T16:46:50.449Z,100042.52
2018-11-01T16:49:20.426Z,100048.73
2018-11-01T16:51:50.374Z,100046.68
2018-11-01T16:54:20.457Z,100053.13
2018-11-01T16:56:50.482Z,100055.20
2018-11-01T16:59:20.468Z,100062.09
2018-11-01T17:01:50.490Z,100070.14
2018-11-01T17:04:20.419Z,100068.77
2018-11-01T17:06:50.504Z,100081.39
2018-11-01T17:09:20.571Z,100092.55
2018-11-01T17:11:50.621Z,100099.08
2018-11-01T17:14:20.583Z,100105.05
2018-11-01T17:16:50.609Z,100116.53
2018-11-01T17:19:20.572Z,100113.44
2018-11-01T17:21:50.534Z,100109.42
2018-11-01T17:24:20.565Z,100117.92
2018-11-01T17:26:50.634Z,100111.25
2018-11-01T17:29:20.652Z,100115.95
2018-11-01T17:31:50.677Z,100121.23
2018-11-01T17:34:20.719Z,100117.92
2018-11-01T17:36:50.858Z,100121.83
2018-11-01T17:39:21.396Z,100123.77
2018-11-01T17:41:51.644Z,100132.05
2018-11-01T17:44:21.684Z,100128.73
2018-11-01T17:46:51.768Z,100130.89
2018-11-01T17:49:21.809Z,100131.23
2018-11-01T17:51:54.525Z,100139.76
2018-11-01T17:54:24.690Z,100137.79
2018-11-01T17:56:54.918Z,100138.84
2018-11-01T17:59:24.921Z,100147.34
2018-11-01T18:01:55.109Z,100148.13
2018-11-01T18:04:25.157Z,100152.03
2018-11-01T18:06:55.386Z,100149.27
2018-11-01T18:09:25.804Z,100143.89
2018-11-01T18:11:55.787Z,100138.27
2018-11-01T18:14:25.799Z,100138.14
2018-11-01T18:16:55.790Z,100131.61
2018-11-01T18:19:25.823Z,100138.16
2018-11-01T18:21:55.823Z,100141.60
2018-11-01T18:24:25.826Z,100138.75
2018-11-01T18:26:55.857Z,100148.97
2018-11-01T18:29:25.844Z,100145.52
2018-11-01T18:31:55.848Z,100141.38
2018-11-01T18:34:25.863Z,100145.06
2018-11-01T18:36:55.909Z,100152.87
2018-11-01T18:39:26.064Z,100160.13
2018-11-01T18:41:55.963Z,100151.97
2018-11-01T18:44:26.179Z,100152.30
2018-11-01T18:46:56.242Z,100156.56
2018-11-01T18:49:26.279Z,100163.30
2018-11-01T18:51:56.229Z,100165.36
2018-11-01T18:54:26.262Z,100168.48
2018-11-01T18:56:56.263Z,100179.28
2018-11-01T18:59:26.335Z,100166.41
2018-11-01T19:01:56.361Z,100171.92
2018-11-01T19:04:26.378Z,100172.48
2018-11-01T19:06:56.374Z,100174.69
2018-11-01T19:09:26.403Z,100173.53
2018-11-01T19:11:56.401Z,100178.12
2018-11-01T19:14:26.522Z,100174.00
2018-11-01T19:16:56.492Z,100187.41
2018-11-01T19:19:26.538Z,100182.95
2018-11-01T19:21:56.673Z,100185.94
2018-11-01T19:24:26.592Z,100180.42
2018-11-01T19:26:56.722Z,100180.42
2018-11-01T19:29:26.659Z,100182.82
2018-11-01T19:31:56.666Z,100179.77
2018-11-01T19:34:26.954Z,100181.94
2018-11-01T19:36:56.835Z,100189.28
2018-11-01T19:39:26.925Z,100187.58
2018-11-01T19:41:57.052Z,100190.79
2018-11-01T19:44:27.041Z,100195.38
2018-11-01T19:46:57.050Z,100195.05
2018-11-01T19:49:27.160Z,100196.07
2018-11-01T19:51:57.200Z,100202.86
2018-11-01T19:54:27.257Z,100206.41
2018-11-01T19:56:57.294Z,100211.45
2018-11-01T19:59:27.379Z,100208.93
2018-11-01T20:01:58.260Z,100212.73
2018-11-01T20:04:28.299Z,100208.83
2018-11-01T20:06:58.284Z,100212.38
2018-11-01T20:09:28.348Z,100213.19
2018-11-01T20:11:58.341Z,100219.50
2018-11-01T20:14:28.388Z,100220.31
2018-11-01T20:16:58.508Z,100222.94
2018-11-01T20:19:28.519Z,100210.77
2018-11-01T20:21:58.709Z,100211.22
2018-11-01T20:24:28.713Z,100218.57
2018-11-01T20:26:58.784Z,100225.00
2018-11-01T20:29:28.748Z,100219.97
2018-11-01T20:31:59.081Z,100223.19
2018-11-01T20:34:28.921Z,100233.30
2018-11-01T20:36:58.910Z,100224.10
2018-11-01T20:39:28.957Z,100220.19
2018-11-01T20:41:59.036Z,100219.83
2018-11-01T20:44:29.096Z,100217.89
2018-11-01T20:46:59.156Z,100212.60
2018-11-01T20:49:29.213Z,100218.34
2018-11-01T20:51:59.352Z,100226.63
2018-11-01T20:54:29.407Z,100237.89
2018-11-01T20:56:59.544Z,100233.97
2018-11-01T20:59:29.563Z,100247.17
2018-11-01T21:01:59.618Z,100237.19
2018-11-01T21:04:29.682Z,100244.09
2018-11-01T21:06:59.725Z,100233.84
2018-11-01T21:09:29.764Z,100223.17
2018-11-01T21:11:59.913Z,100227.53
2018-11-01T21:14:29.798Z,100233.61
2018-11-01T21:16:59.900Z,100233.05
2018-11-01T21:19:29.820Z,100226.38
2018-11-01T21:21:59.817Z,100221.09
2018-11-01T21:24:29.835Z,100242.80
2018-11-01T21:26:59.870Z,100235.34
2018-11-01T21:29:30.044Z,100240.73
2018-11-01T21:32:00.008Z,100247.52
2018-11-01T21:34:30.009Z,100247.98
2018-11-01T21:37:00.043Z,100243.37
2018-11-01T21:39:30.194Z,100240.14
2018-11-01T21:42:00.339Z,100250.48
2018-11-01T21:44:30.347Z,100256.35
2018-11-01T21:47:00.403Z,100257.27
2018-11-01T21:49:30.686Z,100263.69
2018-11-01T21:52:00.848Z,100262.40
2018-11-01T21:54:30.851Z,100262.30
2018-11-01T21:57:00.978Z,100262.42
2018-11-01T21:59:31.225Z,100266.09
2018-11-01T22:02:01.346Z,100265.38
2018-11-01T22:04:31.404Z,100271.36
2018-11-01T22:07:01.451Z,100271.00
2018-11-01T22:09:31.469Z,100277.20
2018-11-01T22:12:01.434Z,100273.51
2018-11-01T22:14:31.507Z,100280.30
2018-11-01T22:17:01.509Z,100281.21
2018-11-01T22:19:31.561Z,100270.62
2018-11-01T22:22:01.579Z,100278.42
2018-11-01T22:24:31.625Z,100276.01
2018-11-01T22:27:02.288Z,100275.64
2018-11-01T22:29:32.246Z,100291.52
2018-11-01T22:32:03.054Z,100283.67
2018-11-01T22:34:33.177Z,100288.05
2018-11-01T22:37:03.155Z,100301.55
2018-11-01T22:39:33.170Z,100294.87
2018-11-01T22:42:03.470Z,100297.27
2018-11-01T22:44:33.448Z,100301.08
2018-11-01T22:47:03.446Z,100298.54
2018-11-01T22:49:33.466Z,100301.16
2018-11-01T22:52:03.428Z,100302.99
2018-11-01T22:54:33.465Z,100301.84
2018-11-01T22:57:03.505Z,100307.59
2018-11-01T22:59:33.496Z,100308.41
2018-11-01T23:02:04.023Z,100315.20
2018-11-01T23:04:34.219Z,100315.66
2018-11-01T23:07:04.224Z,100322.56
2018-11-01T23:09:34.207Z,100317.48
2018-11-01T23:12:04.113Z,100317.72
2018-11-01T23:14:34.068Z,100322.88
2018-11-01T23:17:04.031Z,100321.16
2018-11-01T23:19:34.006Z,100318.62
2018-11-01T23:22:04.004Z,100315.63
2018-11-01T23:24:33.963Z,100316.64
2018-11-01T23:27:03.989Z,100325.16
2018-11-01T23:29:33.916Z,100329.90
2018-11-01T23:32:04.066Z,100336.58
2018-11-01T23:34:33.956Z,100331.28
2018-11-01T23:37:08.896Z,100336.58
2018-11-01T23:39:43.839Z,100335.98
2018-11-01T23:42:18.760Z,100338.19
2018-11-01T23:44:53.841Z,100347.27
2018-11-01T23:47:28.741Z,100341.88
2018-11-01T23:50:08.541Z,100347.19
2018-11-01T23:52:40.001Z,100355.03
2018-11-01T23:55:09.894Z,100357.34
2018-11-01T23:57:39.784Z,100356.89
